createdAt,value
2023-04-30T00:01:59.512Z,21.00
2023-04-30T00:04:27.928Z,19.20
2023-04-30T00:06:56.707Z,19.80
2023-04-30T00:09:24.991Z,20.20
2023-04-30T00:11:53.114Z,18.70
2023-04-30T00:14:21.324Z,22.10
2023-04-30T00:16:49.799Z,22.80
2023-04-30T00:19:17.947Z,22.20
2023-04-30T00:21:46.266Z,24.90
2023-04-30T00:24:14.642Z,19.80
2023-04-30T00:26:44.055Z,23.10
2023-04-30T00:31:42.071Z,24.40
2023-04-30T00:34:10.378Z,21.90
2023-04-30T00:36:39.698Z,21.50
2023-04-30T00:41:36.622Z,19.50
2023-04-30T00:44:05.057Z,20.20
2023-04-30T00:46:33.112Z,21.30
2023-04-30T00:49:04.965Z,21.60
2023-04-30T00:51:33.689Z,20.00
2023-04-30T00:54:03.556Z,22.60
2023-04-30T00:56:32.020Z,22.00
2023-04-30T00:59:00.418Z,21.40
2023-04-30T01:01:32.180Z,21.20
2023-04-30T01:04:01.229Z,22.10
2023-04-30T01:06:29.785Z,23.10
2023-04-30T01:08:58.529Z,24.20
2023-04-30T01:12:03.698Z,20.20
2023-04-30T01:14:57.338Z,22.50
2023-04-30T01:17:41.978Z,20.90
2023-04-30T01:20:11.558Z,22.60
2023-04-30T01:23:04.579Z,22.30
2023-04-30T01:25:49.831Z,24.80
2023-04-30T01:28:20.810Z,21.50
2023-04-30T01:30:50.892Z,19.70
2023-04-30T01:33:19.155Z,20.80
2023-04-30T01:36:13.252Z,21.60
2023-04-30T01:38:49.713Z,21.80
2023-04-30T01:41:27.021Z,23.50
2023-04-30T01:44:14.158Z,22.80
2023-04-30T01:46:50.788Z,21.90
2023-04-30T01:49:37.328Z,20.70
2023-04-30T01:52:27.281Z,21.60
2023-04-30T01:55:21.768Z,19.70
2023-04-30T01:58:00.831Z,21.50
2023-04-30T02:00:33.233Z,21.20
2023-04-30T02:03:01.517Z,20.60
2023-04-30T02:05:31.301Z,19.50
2023-04-30T02:07:59.524Z,22.60
2023-04-30T02:10:29.568Z,19.30
2023-04-30T02:12:57.727Z,21.60
2023-04-30T02:15:26.312Z,21.30
2023-04-30T02:17:55.248Z,20.60
2023-04-30T02:20:26.151Z,20.10
2023-04-30T02:22:55.007Z,21.60
2023-04-30T02:25:23.293Z,23.40
2023-04-30T02:27:51.621Z,20.50
2023-04-30T02:30:21.090Z,22.00
2023-04-30T02:32:49.365Z,25.10
2023-04-30T02:35:17.848Z,23.30
2023-04-30T02:37:46.196Z,22.80
2023-04-30T02:40:14.592Z,21.20
2023-04-30T02:42:42.845Z,20.50
2023-04-30T02:45:11.235Z,22.60
2023-04-30T02:47:39.637Z,23.00
2023-04-30T02:50:08.511Z,21.20
2023-04-30T02:52:36.660Z,21.00
2023-04-30T02:55:05.548Z,18.80
2023-04-30T03:00:02.744Z,20.50
2023-04-30T03:02:31.372Z,21.70
2023-04-30T03:04:59.883Z,23.30
2023-04-30T03:07:27.980Z,20.80
2023-04-30T03:09:56.441Z,20.90
2023-04-30T03:12:24.768Z,20.50
2023-04-30T03:14:53.697Z,21.60
2023-04-30T03:17:21.897Z,20.50
2023-04-30T03:19:50.559Z,21.60
2023-04-30T03:22:19.758Z,18.90
2023-04-30T03:24:47.926Z,22.20
2023-04-30T03:27:17.157Z,20.00
2023-04-30T03:29:45.909Z,19.40
2023-04-30T03:32:14.109Z,17.70
2023-04-30T03:34:42.661Z,18.90
2023-04-30T03:37:13.694Z,19.90
2023-04-30T03:39:41.885Z,20.20
2023-04-30T03:42:10.190Z,18.30
2023-04-30T03:44:39.151Z,20.30
2023-04-30T03:47:07.399Z,17.30
2023-04-30T03:49:35.595Z,16.50
2023-04-30T03:52:05.643Z,17.90
2023-04-30T03:54:34.354Z,16.40
2023-04-30T03:57:04.662Z,17.20
2023-04-30T03:59:33.190Z,16.20
2023-04-30T04:02:02.008Z,15.70
2023-04-30T04:04:30.628Z,14.60
2023-04-30T04:07:00.076Z,17.30
2023-04-30T04:09:28.573Z,14.10
2023-04-30T04:11:56.690Z,13.40
2023-04-30T04:14:25.050Z,15.00
2023-04-30T04:16:53.813Z,16.90
2023-04-30T04:19:22.527Z,17.20
2023-04-30T04:24:19.541Z,13.50
2023-04-30T04:26:48.095Z,14.40
2023-04-30T04:29:16.518Z,15.40
2023-04-30T04:31:45.305Z,12.80
2023-04-30T04:34:14.249Z,13.70
2023-04-30T04:36:42.309Z,15.00
2023-04-30T04:39:11.893Z,14.60
2023-04-30T04:41:40.128Z,14.20
2023-04-30T04:46:42.520Z,14.00
2023-04-30T04:49:10.788Z,14.10
2023-04-30T04:51:39.882Z,14.10
2023-04-30T04:54:08.567Z,13.70
2023-04-30T04:56:36.845Z,13.00
2023-04-30T05:01:34.058Z,11.70
2023-04-30T05:04:02.453Z,13.70
2023-04-30T05:06:30.966Z,12.60
2023-04-30T05:08:59.072Z,12.30
2023-04-30T05:11:27.166Z,12.80
2023-04-30T05:13:55.281Z,13.40
2023-04-30T05:16:23.515Z,13.30
2023-04-30T05:18:52.487Z,14.00
2023-04-30T05:23:48.657Z,14.40
2023-04-30T05:26:16.695Z,13.20
2023-04-30T05:28:45.555Z,13.60
2023-04-30T05:31:13.638Z,13.30
2023-04-30T05:33:41.919Z,13.60
2023-04-30T05:36:11.335Z,13.60
2023-04-30T05:38:39.566Z,11.80
2023-04-30T05:41:07.862Z,11.60
2023-04-30T05:43:36.021Z,11.60
2023-04-30T05:46:04.389Z,12.10
2023-04-30T05:48:32.983Z,11.70
2023-04-30T05:51:01.029Z,11.30
2023-04-30T05:53:29.092Z,11.60
2023-04-30T05:55:57.809Z,12.40
2023-04-30T05:58:26.254Z,10.80
2023-04-30T06:00:54.786Z,10.80
2023-04-30T06:03:23.760Z,11.80
2023-04-30T06:05:51.815Z,10.40
2023-04-30T06:08:20.114Z,11.30
2023-04-30T06:10:49.108Z,11.70
2023-04-30T06:13:17.176Z,10.30
2023-04-30T06:15:46.208Z,10.30
2023-04-30T06:18:14.530Z,10.70
2023-04-30T06:20:42.719Z,10.10
2023-04-30T06:23:10.766Z,9.50
2023-04-30T06:25:39.519Z,9.00
2023-04-30T06:28:09.699Z,8.30
2023-04-30T06:30:38.012Z,8.90
2023-04-30T06:33:06.281Z,9.10
2023-04-30T06:38:02.599Z,8.90
2023-04-30T06:45:26.920Z,9.20
2023-04-30T06:50:23.341Z,8.50
2023-04-30T06:55:19.573Z,7.80
2023-04-30T06:57:48.098Z,7.80
2023-04-30T07:00:16.875Z,6.70
2023-04-30T07:02:47.971Z,6.40
2023-04-30T07:05:16.504Z,8.30
2023-04-30T07:07:44.772Z,7.10
2023-04-30T07:12:42.077Z,8.60
2023-04-30T07:17:38.847Z,7.40
2023-04-30T07:20:08.255Z,6.40
2023-04-30T07:22:36.574Z,7.00
2023-04-30T07:25:06.181Z,8.50
2023-04-30T07:27:34.366Z,6.30
2023-04-30T07:32:30.504Z,7.10
2023-04-30T07:34:58.775Z,7.20
2023-04-30T07:37:27.256Z,6.60
2023-04-30T07:42:24.331Z,7.90
2023-04-30T07:44:53.127Z,6.40
2023-04-30T07:47:21.283Z,6.80
2023-04-30T07:52:17.765Z,6.70
2023-04-30T07:57:14.079Z,6.10
2023-04-30T07:59:42.173Z,6.40
2023-04-30T08:04:39.023Z,7.00
2023-04-30T08:07:07.795Z,7.30
2023-04-30T08:09:35.970Z,6.10
2023-04-30T08:12:05.214Z,7.20
2023-04-30T08:14:33.313Z,5.50
2023-04-30T08:17:03.061Z,6.30
2023-04-30T08:19:31.637Z,6.70
2023-04-30T08:22:00.459Z,6.60
2023-04-30T08:24:28.695Z,6.00
2023-04-30T08:26:57.074Z,7.30
2023-04-30T08:29:25.612Z,7.30
2023-04-30T08:31:53.885Z,6.70
2023-04-30T08:34:22.106Z,6.80
2023-04-30T08:36:50.245Z,6.40
2023-04-30T08:39:18.479Z,7.30
2023-04-30T08:44:16.387Z,6.60
2023-04-30T08:46:44.841Z,7.50
2023-04-30T08:49:13.542Z,6.60
2023-04-30T08:51:41.870Z,8.20
2023-04-30T08:56:41.618Z,6.50
2023-04-30T08:59:09.951Z,9.00
2023-04-30T09:01:38.359Z,7.10
2023-04-30T09:04:06.932Z,5.40
2023-04-30T09:09:12.606Z,6.10
2023-04-30T09:11:42.140Z,8.50
2023-04-30T09:14:10.285Z,7.50
2023-04-30T09:16:50.005Z,8.40
2023-04-30T09:19:27.874Z,6.00
2023-04-30T09:21:56.734Z,7.40
2023-04-30T09:24:25.322Z,5.70
2023-04-30T09:29:22.065Z,7.70
2023-04-30T09:31:50.351Z,5.10
2023-04-30T09:34:18.614Z,5.90
2023-04-30T09:36:56.626Z,6.50
2023-04-30T09:39:25.128Z,5.90
2023-04-30T09:41:53.594Z,9.40
2023-04-30T09:44:29.782Z,6.10
2023-04-30T09:46:59.549Z,6.00
2023-04-30T09:49:27.930Z,6.20
2023-04-30T09:51:57.792Z,4.60
2023-04-30T09:54:30.595Z,6.90
2023-04-30T09:57:02.031Z,5.40
2023-04-30T09:59:36.794Z,6.10
2023-04-30T10:02:09.067Z,5.50
2023-04-30T10:04:39.349Z,6.00
2023-04-30T10:07:22.283Z,4.90
2023-04-30T10:09:56.111Z,6.40
2023-04-30T10:12:35.402Z,9.00
2023-04-30T10:15:15.178Z,7.70
2023-04-30T10:17:46.625Z,4.60
2023-04-30T10:20:17.524Z,4.50
2023-04-30T10:22:48.231Z,5.20
2023-04-30T10:25:17.495Z,7.40
2023-04-30T10:27:46.498Z,6.50
2023-04-30T10:30:15.468Z,6.20
2023-04-30T10:33:20.999Z,4.70
2023-04-30T10:36:09.191Z,4.20
2023-04-30T10:38:38.902Z,5.90
2023-04-30T10:41:10.731Z,5.50
2023-04-30T10:43:39.284Z,5.50
2023-04-30T10:48:36.898Z,6.50
2023-04-30T10:51:05.324Z,6.00
2023-04-30T10:53:37.370Z,6.60
2023-04-30T10:56:12.042Z,5.50
2023-04-30T10:58:40.816Z,5.60
2023-04-30T11:03:38.583Z,4.90
2023-04-30T11:06:20.235Z,6.20
2023-04-30T11:08:48.649Z,6.40
2023-04-30T11:11:23.001Z,6.10
2023-04-30T11:14:01.871Z,6.00
2023-04-30T11:16:31.689Z,5.20
2023-04-30T11:19:27.765Z,5.80
2023-04-30T11:22:05.024Z,4.20
2023-04-30T11:24:55.101Z,5.60
2023-04-30T11:27:27.990Z,4.80
2023-04-30T11:29:59.479Z,5.10
2023-04-30T11:32:34.994Z,6.10
2023-04-30T11:35:04.973Z,7.60
2023-04-30T11:37:34.066Z,4.90
2023-04-30T11:40:13.570Z,4.60
2023-04-30T11:42:47.069Z,4.90
2023-04-30T11:45:17.967Z,3.90
2023-04-30T11:47:51.853Z,4.10
2023-04-30T11:50:30.282Z,3.90
2023-04-30T11:53:03.380Z,3.90
2023-04-30T11:55:31.524Z,5.20
2023-04-30T11:58:00.644Z,5.80
2023-04-30T12:00:31.191Z,4.30
2023-04-30T12:03:04.289Z,4.50
2023-04-30T12:05:32.454Z,4.20
2023-04-30T12:08:06.552Z,3.70
2023-04-30T12:10:36.146Z,4.00
2023-04-30T12:13:04.253Z,4.10
2023-04-30T12:15:33.421Z,4.00
2023-04-30T12:18:13.354Z,4.90
2023-04-30T12:20:42.697Z,4.20
2023-04-30T12:23:11.003Z,5.90
2023-04-30T12:25:45.752Z,4.70
2023-04-30T12:28:14.037Z,5.10
2023-04-30T12:30:43.768Z,4.70
2023-04-30T12:33:12.276Z,5.00
2023-04-30T12:35:43.505Z,8.00
2023-04-30T12:38:16.156Z,4.30
2023-04-30T12:40:50.727Z,5.10
2023-04-30T12:43:19.138Z,3.50
2023-04-30T12:45:53.016Z,4.70
2023-04-30T12:48:24.360Z,4.00
2023-04-30T12:51:01.218Z,4.70
2023-04-30T12:53:29.865Z,4.40
2023-04-30T12:58:52.770Z,3.90
2023-04-30T13:01:23.210Z,3.50
2023-04-30T13:03:53.132Z,5.30
2023-04-30T13:06:23.703Z,7.40
2023-04-30T13:08:58.669Z,4.50
2023-04-30T13:11:27.981Z,4.90
2023-04-30T13:13:56.658Z,5.20
2023-04-30T13:16:25.399Z,5.70
2023-04-30T13:18:55.279Z,5.90
2023-04-30T13:21:25.075Z,5.40
2023-04-30T13:23:55.150Z,5.50
2023-04-30T13:26:24.679Z,5.60
2023-04-30T13:28:52.978Z,5.30
2023-04-30T13:31:22.441Z,6.00
2023-04-30T13:33:50.963Z,6.80
2023-04-30T13:36:19.320Z,5.10
2023-04-30T13:38:47.991Z,5.10
2023-04-30T13:41:16.393Z,5.00
2023-04-30T13:43:46.472Z,5.20
2023-04-30T13:46:15.532Z,4.80
2023-04-30T13:48:44.276Z,5.00
2023-04-30T13:51:12.454Z,4.60
2023-04-30T13:53:40.600Z,4.90
2023-04-30T13:56:08.809Z,6.20
2023-04-30T13:58:37.011Z,9.50
2023-04-30T14:01:05.292Z,5.90
2023-04-30T14:03:33.924Z,5.20
2023-04-30T14:06:02.303Z,4.50
2023-04-30T14:08:31.942Z,4.40
2023-04-30T14:11:00.158Z,6.40
2023-04-30T14:13:28.315Z,5.60
2023-04-30T14:15:56.598Z,6.10
2023-04-30T14:18:24.810Z,4.80
2023-04-30T14:20:52.980Z,5.00
2023-04-30T14:23:21.359Z,4.30
2023-04-30T14:25:49.638Z,5.20
2023-04-30T14:28:18.048Z,5.50
2023-04-30T14:30:46.496Z,5.80
2023-04-30T14:33:14.936Z,5.20
2023-04-30T14:35:43.355Z,5.90
2023-04-30T14:38:11.432Z,5.90
2023-04-30T14:40:39.509Z,4.80
2023-04-30T14:43:07.900Z,5.70
2023-04-30T14:45:36.170Z,6.00
2023-04-30T14:48:05.729Z,6.10
2023-04-30T14:50:34.239Z,5.90
2023-04-30T14:53:04.058Z,5.90
2023-04-30T14:55:32.986Z,6.10
2023-04-30T14:58:01.119Z,4.70
2023-04-30T15:00:29.507Z,8.50
2023-04-30T15:02:57.875Z,5.30
2023-04-30T15:05:26.793Z,7.20
2023-04-30T15:07:55.184Z,4.70
2023-04-30T15:10:23.252Z,4.60
2023-04-30T15:12:51.583Z,5.30
2023-04-30T15:15:22.587Z,5.50
2023-04-30T15:17:51.008Z,5.20
2023-04-30T15:20:19.294Z,11.30
2023-04-30T15:22:47.774Z,6.10
2023-04-30T15:25:15.954Z,6.30
2023-04-30T15:27:44.120Z,4.80
2023-04-30T15:30:12.395Z,5.40
2023-04-30T15:32:40.770Z,5.30
2023-04-30T15:35:09.443Z,8.00
2023-04-30T15:37:37.620Z,4.90
2023-04-30T15:40:07.016Z,4.80
2023-04-30T15:42:35.163Z,5.60
2023-04-30T15:45:04.027Z,4.70
2023-04-30T15:47:32.266Z,4.90
2023-04-30T15:50:00.887Z,4.20
2023-04-30T15:52:29.037Z,6.30
2023-04-30T15:54:57.244Z,4.50
2023-04-30T15:57:25.672Z,4.50
2023-04-30T15:59:54.083Z,4.40
2023-04-30T16:02:22.856Z,5.40
2023-04-30T16:04:50.977Z,7.30
2023-04-30T16:07:18.990Z,5.40
2023-04-30T16:09:49.100Z,5.10
2023-04-30T16:12:17.482Z,5.10
2023-04-30T16:14:45.745Z,7.60
2023-04-30T16:17:13.826Z,5.50
2023-04-30T16:19:42.207Z,9.70
2023-04-30T16:22:10.745Z,5.50
2023-04-30T16:24:38.975Z,6.00
2023-04-30T16:27:08.575Z,7.20
2023-04-30T16:29:36.871Z,7.30
2023-04-30T16:32:05.186Z,6.60
2023-04-30T16:34:33.296Z,5.90
2023-04-30T16:37:01.668Z,6.30
2023-04-30T16:39:29.837Z,6.00
2023-04-30T16:41:58.196Z,6.50
2023-04-30T16:44:27.186Z,6.80
2023-04-30T16:46:57.161Z,6.40
2023-04-30T16:49:25.711Z,6.20
2023-04-30T16:51:53.934Z,7.40
2023-04-30T16:54:22.302Z,5.80
2023-04-30T16:56:50.448Z,8.20
2023-04-30T16:59:18.523Z,6.90
2023-04-30T17:01:47.330Z,8.00
2023-04-30T17:04:15.987Z,11.20
2023-04-30T17:06:44.081Z,8.10
2023-04-30T17:09:13.076Z,6.00
2023-04-30T17:11:41.772Z,10.10
2023-04-30T17:14:09.838Z,5.80
2023-04-30T17:16:38.410Z,6.20
2023-04-30T17:19:07.898Z,7.70
2023-04-30T17:21:36.388Z,6.70
2023-04-30T17:24:05.460Z,5.60
2023-04-30T17:26:33.748Z,5.90
2023-04-30T17:29:01.916Z,6.70
2023-04-30T17:31:31.316Z,8.30
2023-04-30T17:34:00.535Z,6.70
2023-04-30T17:36:28.943Z,10.00
2023-04-30T17:38:57.205Z,11.50
2023-04-30T17:41:25.642Z,6.30
2023-04-30T17:43:53.825Z,16.60
2023-04-30T17:46:22.676Z,7.20
2023-04-30T17:48:50.880Z,7.60
2023-04-30T17:51:18.990Z,6.50
2023-04-30T17:53:47.331Z,6.70
2023-04-30T17:56:15.358Z,8.70
2023-04-30T17:58:45.903Z,6.10
2023-04-30T18:01:14.725Z,7.90
2023-04-30T18:03:43.272Z,8.00
2023-04-30T18:06:11.548Z,9.00
2023-04-30T18:08:39.583Z,6.60
2023-04-30T18:11:08.660Z,8.00
2023-04-30T18:13:37.325Z,5.80
2023-04-30T18:16:05.888Z,7.00
2023-04-30T18:18:34.008Z,8.30
2023-04-30T18:21:02.301Z,7.60
2023-04-30T18:23:30.643Z,7.80
2023-04-30T18:25:58.818Z,12.50
2023-04-30T18:28:27.735Z,6.00
2023-04-30T18:30:57.103Z,8.50
2023-04-30T18:33:25.111Z,6.20
2023-04-30T18:35:53.880Z,6.50
2023-04-30T18:38:21.932Z,5.40
2023-04-30T18:40:54.725Z,6.70
2023-04-30T18:43:23.544Z,6.00
2023-04-30T18:45:52.552Z,6.70
2023-04-30T18:48:23.146Z,6.60
2023-04-30T18:50:51.597Z,6.60
2023-04-30T18:53:20.688Z,7.50
2023-04-30T18:55:48.776Z,8.80
2023-04-30T18:58:17.038Z,8.30
2023-04-30T19:00:45.247Z,10.10
2023-04-30T19:03:13.817Z,8.10
2023-04-30T19:05:42.685Z,8.20
2023-04-30T19:08:10.774Z,10.50
2023-04-30T19:10:38.941Z,8.10
2023-04-30T19:13:06.982Z,8.60
2023-04-30T19:15:35.785Z,7.10
2023-04-30T19:18:03.907Z,6.90
2023-04-30T19:20:32.113Z,8.30
2023-04-30T19:23:00.350Z,7.80
2023-04-30T19:25:28.689Z,7.40
2023-04-30T19:27:56.869Z,6.90
2023-04-30T19:30:25.144Z,8.10
2023-04-30T19:32:53.242Z,7.70
2023-04-30T19:35:21.478Z,6.50
2023-04-30T19:37:49.552Z,7.20
2023-04-30T19:40:18.660Z,6.90
2023-04-30T19:47:43.883Z,6.60
2023-04-30T19:50:12.567Z,7.70
2023-04-30T19:52:41.051Z,7.30
2023-04-30T19:55:09.727Z,11.20
2023-04-30T19:57:38.018Z,7.60
2023-04-30T20:00:07.202Z,8.10
2023-04-30T20:02:35.304Z,6.40
2023-04-30T20:05:06.956Z,8.00
2023-04-30T20:07:36.028Z,7.00
2023-04-30T20:10:04.894Z,7.90
2023-04-30T20:12:33.167Z,8.10
2023-04-30T20:15:01.508Z,7.90
2023-04-30T20:17:29.918Z,9.70
2023-04-30T20:19:58.579Z,8.50
2023-04-30T20:22:28.160Z,8.90
2023-04-30T20:24:56.558Z,8.10
2023-04-30T20:27:25.810Z,8.80
2023-04-30T20:29:54.639Z,7.30
2023-04-30T20:34:52.277Z,13.00
2023-04-30T20:39:48.417Z,7.40
2023-04-30T20:42:16.454Z,9.40
2023-04-30T20:44:44.555Z,8.60
2023-04-30T20:47:14.420Z,8.30
2023-04-30T20:49:43.589Z,10.30
2023-04-30T20:54:44.221Z,9.10
2023-04-30T20:57:12.711Z,11.10
2023-04-30T20:59:41.594Z,9.90
2023-04-30T21:02:10.525Z,11.20
2023-04-30T21:04:39.160Z,9.40
2023-04-30T21:07:07.550Z,10.10
2023-04-30T21:09:37.081Z,9.70
2023-04-30T21:12:05.548Z,10.80
2023-04-30T21:14:34.327Z,10.10
2023-04-30T21:17:02.823Z,8.70
2023-04-30T21:19:33.832Z,11.30
2023-04-30T21:22:02.016Z,9.00
2023-04-30T21:24:31.307Z,10.70
2023-04-30T21:29:28.786Z,11.40
2023-04-30T21:31:57.244Z,11.30
2023-04-30T21:34:25.436Z,8.40
2023-04-30T21:36:53.463Z,9.60
2023-04-30T21:39:21.670Z,11.40
2023-04-30T21:41:49.786Z,10.80
2023-04-30T21:44:18.235Z,9.30
2023-04-30T21:46:46.897Z,8.70
2023-04-30T21:49:15.602Z,9.20
2023-04-30T21:51:43.984Z,10.70
2023-04-30T21:54:12.145Z,10.10
2023-04-30T21:56:41.197Z,10.70
2023-04-30T21:59:09.287Z,9.70
2023-04-30T22:01:38.099Z,9.10
2023-04-30T22:04:06.484Z,10.20
2023-04-30T22:06:34.855Z,8.60
2023-04-30T22:09:04.606Z,9.20
2023-04-30T22:11:32.858Z,9.60
2023-04-30T22:14:01.326Z,9.20
2023-04-30T22:16:29.776Z,10.00
2023-04-30T22:18:59.105Z,9.00
2023-04-30T22:21:27.482Z,7.80
2023-04-30T22:23:55.679Z,9.40
2023-04-30T22:26:25.450Z,10.50
2023-04-30T22:28:53.839Z,9.50
2023-04-30T22:31:21.968Z,9.00
2023-04-30T22:33:50.071Z,11.80
2023-04-30T22:36:18.769Z,9.00
2023-04-30T22:38:46.936Z,7.90
2023-04-30T22:41:15.000Z,7.30
2023-04-30T22:43:46.783Z,15.00
2023-04-30T22:46:15.616Z,8.30
2023-04-30T22:48:44.572Z,9.80
2023-04-30T22:51:12.930Z,9.40
2023-04-30T22:53:41.305Z,9.30
2023-04-30T22:56:10.334Z,9.50
2023-04-30T22:58:38.353Z,9.50
2023-04-30T23:01:06.456Z,8.60
2023-04-30T23:03:34.683Z,7.80
2023-04-30T23:06:03.128Z,7.70
2023-04-30T23:08:31.363Z,8.30
2023-04-30T23:11:00.574Z,9.20
2023-04-30T23:13:28.630Z,7.50
2023-04-30T23:15:59.076Z,9.90
2023-04-30T23:18:27.718Z,7.80
2023-04-30T23:20:59.056Z,6.30
2023-04-30T23:23:28.262Z,9.50
2023-04-30T23:25:56.970Z,7.80
2023-04-30T23:28:25.243Z,11.00
2023-04-30T23:30:54.515Z,9.90
2023-04-30T23:33:22.984Z,8.70
2023-04-30T23:35:53.690Z,8.50
2023-04-30T23:38:22.321Z,10.30
2023-04-30T23:40:50.483Z,9.10
2023-04-30T23:43:18.894Z,8.50
2023-04-30T23:45:47.035Z,9.70
2023-04-30T23:48:15.773Z,10.40
2023-04-30T23:50:43.889Z,8.90
2023-04-30T23:53:12.617Z,10.20
2023-04-30T23:55:41.505Z,9.60
2023-04-30T23:58:09.849Z,9.80
